Terminal Aerodrome Forecast
Issued by NWS

Home | Current Version | Previous Version | Text Only | Print | Product List | Glossary On
Versions: 1 2 3 4 5 6 7 8 9 10 11 12 13 14 15 16 17 18 19 20 21 22
000
FTUS42 KJAX 301700
TAFCRG
TAF
KCRG 301731Z 3018/3118 01006KT P6SM SCT040 BKN060
     FM301900 10010KT P6SM SCT045 SCT250
     FM310200 11004KT P6SM FEW020 SCT060
     FM311500 14006KT P6SM SCT060=

USA.gov is the U.S. government's official web portal to all federal, state and local government web resources and services.